sensor_id;sensor_type;location;lat;lon;timestamp;P1;durP1;ratioP1;P2;durP2;ratioP2
11988;SDS011;6054;50.966;7.094;2023-03-01T00:02:16;6.30;;;4.87;;
11988;SDS011;6054;50.966;7.094;2023-03-01T00:04:43;7.63;;;5.03;;
11988;SDS011;6054;50.966;7.094;2023-03-01T00:07:10;5.37;;;4.57;;
11988;SDS011;6054;50.966;7.094;2023-03-01T00:09:37;6.80;;;4.67;;
11988;SDS011;6054;50.966;7.094;2023-03-01T00:12:05;5.23;;;4.50;;
11988;SDS011;6054;50.966;7.094;2023-03-01T00:14:33;7.20;;;4.50;;
11988;SDS011;6054;50.966;7.094;2023-03-01T00:17:01;6.33;;;4.80;;
11988;SDS011;6054;50.966;7.094;2023-03-01T00:19:28;7.60;;;4.83;;
11988;SDS011;6054;50.966;7.094;2023-03-01T00:21:57;6.77;;;5.07;;
11988;SDS011;6054;50.966;7.094;2023-03-01T00:24:24;6.33;;;4.93;;
11988;SDS011;6054;50.966;7.094;2023-03-01T00:26:52;8.27;;;5.20;;
11988;SDS011;6054;50.966;7.094;2023-03-01T00:29:20;5.97;;;4.97;;
11988;SDS011;6054;50.966;7.094;2023-03-01T00:31:48;5.80;;;4.57;;
11988;SDS011;6054;50.966;7.094;2023-03-01T00:34:15;6.03;;;4.67;;
11988;SDS011;6054;50.966;7.094;2023-03-01T00:36:42;5.97;;;4.43;;
11988;SDS011;6054;50.966;7.094;2023-03-01T00:39:09;5.63;;;4.63;;
11988;SDS011;6054;50.966;7.094;2023-03-01T00:41:38;7.17;;;4.70;;
11988;SDS011;6054;50.966;7.094;2023-03-01T00:44:06;4.83;;;4.27;;
11988;SDS011;6054;50.966;7.094;2023-03-01T00:46:32;4.83;;;4.03;;
11988;SDS011;6054;50.966;7.094;2023-03-01T00:49:00;7.60;;;5.00;;
11988;SDS011;6054;50.966;7.094;2023-03-01T00:51:29;6.93;;;4.70;;
11988;SDS011;6054;50.966;7.094;2023-03-01T00:53:57;8.33;;;5.27;;
11988;SDS011;6054;50.966;7.094;2023-03-01T00:56:25;5.27;;;4.60;;
11988;SDS011;6054;50.966;7.094;2023-03-01T00:58:52;4.83;;;4.10;;
11988;SDS011;6054;50.966;7.094;2023-03-01T01:01:20;5.83;;;4.57;;
11988;SDS011;6054;50.966;7.094;2023-03-01T01:03:49;6.87;;;4.40;;
11988;SDS011;6054;50.966;7.094;2023-03-01T01:06:19;7.17;;;4.83;;
11988;SDS011;6054;50.966;7.094;2023-03-01T01:08:47;4.97;;;4.20;;
11988;SDS011;6054;50.966;7.094;2023-03-01T01:11:15;5.47;;;4.20;;
11988;SDS011;6054;50.966;7.094;2023-03-01T01:13:43;5.10;;;4.30;;
11988;SDS011;6054;50.966;7.094;2023-03-01T01:16:11;6.37;;;4.33;;
11988;SDS011;6054;50.966;7.094;2023-03-01T01:18:38;9.70;;;4.77;;
11988;SDS011;6054;50.966;7.094;2023-03-01T01:21:06;5.40;;;4.27;;
11988;SDS011;6054;50.966;7.094;2023-03-01T01:23:37;7.87;;;4.97;;
11988;SDS011;6054;50.966;7.094;2023-03-01T01:26:06;5.73;;;4.40;;
11988;SDS011;6054;50.966;7.094;2023-03-01T01:28:34;5.33;;;4.27;;
11988;SDS011;6054;50.966;7.094;2023-03-01T01:31:01;5.10;;;4.57;;
11988;SDS011;6054;50.966;7.094;2023-03-01T01:33:27;6.93;;;4.90;;
11988;SDS011;6054;50.966;7.094;2023-03-01T01:35:54;6.13;;;4.67;;
11988;SDS011;6054;50.966;7.094;2023-03-01T01:38:21;9.13;;;4.73;;
11988;SDS011;6054;50.966;7.094;2023-03-01T01:40:50;6.23;;;4.73;;
11988;SDS011;6054;50.966;7.094;2023-03-01T01:43:22;6.37;;;4.87;;
11988;SDS011;6054;50.966;7.094;2023-03-01T01:45:50;7.43;;;4.73;;
11988;SDS011;6054;50.966;7.094;2023-03-01T01:48:20;5.50;;;4.47;;
11988;SDS011;6054;50.966;7.094;2023-03-01T01:50:50;4.93;;;4.43;;
11988;SDS011;6054;50.966;7.094;2023-03-01T01:53:21;6.83;;;4.40;;
11988;SDS011;6054;50.966;7.094;2023-03-01T01:55:50;7.17;;;4.13;;
11988;SDS011;6054;50.966;7.094;2023-03-01T01:58:22;6.70;;;4.10;;
11988;SDS011;6054;50.966;7.094;2023-03-01T02:00:52;6.77;;;4.37;;
11988;SDS011;6054;50.966;7.094;2023-03-01T02:03:20;5.27;;;4.10;;
11988;SDS011;6054;50.966;7.094;2023-03-01T02:05:55;8.27;;;4.27;;
11988;SDS011;6054;50.966;7.094;2023-03-01T02:08:26;4.63;;;3.90;;
11988;SDS011;6054;50.966;7.094;2023-03-01T02:10:56;4.97;;;4.33;;
11988;SDS011;6054;50.966;7.094;2023-03-01T02:13:25;5.63;;;4.30;;
11988;SDS011;6054;50.966;7.094;2023-03-01T02:15:51;5.33;;;4.30;;
11988;SDS011;6054;50.966;7.094;2023-03-01T02:18:18;6.77;;;4.50;;
11988;SDS011;6054;50.966;7.094;2023-03-01T02:20:50;5.73;;;4.37;;
11988;SDS011;6054;50.966;7.094;2023-03-01T02:23:25;4.87;;;4.30;;
11988;SDS011;6054;50.966;7.094;2023-03-01T02:25:54;5.37;;;4.17;;
11988;SDS011;6054;50.966;7.094;2023-03-01T02:28:30;4.90;;;4.40;;
11988;SDS011;6054;50.966;7.094;2023-03-01T02:30:58;7.83;;;4.70;;
11988;SDS011;6054;50.966;7.094;2023-03-01T02:33:42;5.87;;;4.20;;
11988;SDS011;6054;50.966;7.094;2023-03-01T02:36:14;6.60;;;4.70;;
11988;SDS011;6054;50.966;7.094;2023-03-01T02:38:43;5.90;;;4.03;;
11988;SDS011;6054;50.966;7.094;2023-03-01T02:41:11;6.00;;;4.40;;
11988;SDS011;6054;50.966;7.094;2023-03-01T02:43:43;6.90;;;4.60;;
11988;SDS011;6054;50.966;7.094;2023-03-01T02:46:14;5.87;;;4.17;;
11988;SDS011;6054;50.966;7.094;2023-03-01T02:48:43;6.70;;;4.90;;
11988;SDS011;6054;50.966;7.094;2023-03-01T02:51:14;4.50;;;4.10;;
11988;SDS011;6054;50.966;7.094;2023-03-01T02:53:55;7.27;;;4.70;;
11988;SDS011;6054;50.966;7.094;2023-03-01T02:56:30;4.83;;;4.30;;
11988;SDS011;6054;50.966;7.094;2023-03-01T02:58:59;7.77;;;5.00;;
11988;SDS011;6054;50.966;7.094;2023-03-01T03:01:27;7.97;;;5.67;;
11988;SDS011;6054;50.966;7.094;2023-03-01T03:04:02;6.70;;;5.13;;
11988;SDS011;6054;50.966;7.094;2023-03-01T03:06:32;6.63;;;4.77;;
11988;SDS011;6054;50.966;7.094;2023-03-01T03:08:59;6.53;;;4.63;;
11988;SDS011;6054;50.966;7.094;2023-03-01T03:11:26;10.70;;;5.60;;
11988;SDS011;6054;50.966;7.094;2023-03-01T03:13:53;6.73;;;4.93;;
11988;SDS011;6054;50.966;7.094;2023-03-01T03:16:21;7.50;;;5.00;;
11988;SDS011;6054;50.966;7.094;2023-03-01T03:18:48;6.50;;;4.70;;
11988;SDS011;6054;50.966;7.094;2023-03-01T03:21:15;5.70;;;4.90;;
11988;SDS011;6054;50.966;7.094;2023-03-01T03:23:42;9.00;;;5.67;;
11988;SDS011;6054;50.966;7.094;2023-03-01T03:26:09;5.50;;;4.90;;
11988;SDS011;6054;50.966;7.094;2023-03-01T03:28:40;7.20;;;5.40;;
11988;SDS011;6054;50.966;7.094;2023-03-01T03:31:07;7.03;;;4.97;;
11988;SDS011;6054;50.966;7.094;2023-03-01T03:33:35;8.20;;;5.30;;
11988;SDS011;6054;50.966;7.094;2023-03-01T03:36:02;6.50;;;4.83;;
11988;SDS011;6054;50.966;7.094;2023-03-01T03:38:30;6.07;;;4.93;;
11988;SDS011;6054;50.966;7.094;2023-03-01T03:41:00;8.50;;;5.27;;
11988;SDS011;6054;50.966;7.094;2023-03-01T03:43:28;7.90;;;5.40;;
11988;SDS011;6054;50.966;7.094;2023-03-01T03:45:56;6.13;;;5.00;;
11988;SDS011;6054;50.966;7.094;2023-03-01T03:48:23;8.10;;;5.50;;
11988;SDS011;6054;50.966;7.094;2023-03-01T03:50:52;7.23;;;5.23;;
11988;SDS011;6054;50.966;7.094;2023-03-01T03:53:21;8.43;;;5.40;;
11988;SDS011;6054;50.966;7.094;2023-03-01T03:55:48;5.90;;;4.40;;
11988;SDS011;6054;50.966;7.094;2023-03-01T03:58:17;6.87;;;5.27;;
11988;SDS011;6054;50.966;7.094;2023-03-01T04:00:45;8.43;;;5.17;;
11988;SDS011;6054;50.966;7.094;2023-03-01T04:03:15;8.37;;;5.47;;
11988;SDS011;6054;50.966;7.094;2023-03-01T04:05:43;7.10;;;5.40;;
11988;SDS011;6054;50.966;7.094;2023-03-01T04:08:12;5.40;;;4.87;;
11988;SDS011;6054;50.966;7.094;2023-03-01T04:10:40;8.10;;;5.47;;
11988;SDS011;6054;50.966;7.094;2023-03-01T04:13:09;6.40;;;5.47;;
11988;SDS011;6054;50.966;7.094;2023-03-01T04:15:37;5.53;;;4.97;;
11988;SDS011;6054;50.966;7.094;2023-03-01T04:18:04;9.37;;;4.53;;
11988;SDS011;6054;50.966;7.094;2023-03-01T04:20:32;6.53;;;5.27;;
11988;SDS011;6054;50.966;7.094;2023-03-01T04:23:01;9.57;;;5.90;;
11988;SDS011;6054;50.966;7.094;2023-03-01T04:25:36;11.13;;;5.93;;
11988;SDS011;6054;50.966;7.094;2023-03-01T04:28:03;6.73;;;5.40;;
11988;SDS011;6054;50.966;7.094;2023-03-01T04:30:30;8.67;;;5.57;;
11988;SDS011;6054;50.966;7.094;2023-03-01T04:33:00;7.77;;;5.60;;
11988;SDS011;6054;50.966;7.094;2023-03-01T04:35:28;7.50;;;5.70;;
11988;SDS011;6054;50.966;7.094;2023-03-01T04:37:55;7.60;;;5.40;;
11988;SDS011;6054;50.966;7.094;2023-03-01T04:40:22;7.00;;;5.20;;
11988;SDS011;6054;50.966;7.094;2023-03-01T04:42:50;6.87;;;5.40;;
11988;SDS011;6054;50.966;7.094;2023-03-01T04:45:17;8.43;;;5.67;;
11988;SDS011;6054;50.966;7.094;2023-03-01T04:47:44;8.50;;;5.80;;
11988;SDS011;6054;50.966;7.094;2023-03-01T04:50:13;8.80;;;5.27;;
11988;SDS011;6054;50.966;7.094;2023-03-01T04:52:42;6.73;;;5.27;;
11988;SDS011;6054;50.966;7.094;2023-03-01T04:55:10;6.93;;;5.27;;
11988;SDS011;6054;50.966;7.094;2023-03-01T04:57:37;9.97;;;5.63;;
11988;SDS011;6054;50.966;7.094;2023-03-01T05:00:08;7.37;;;5.60;;
11988;SDS011;6054;50.966;7.094;2023-03-01T05:02:46;8.87;;;5.20;;
11988;SDS011;6054;50.966;7.094;2023-03-01T05:05:18;9.10;;;5.07;;
11988;SDS011;6054;50.966;7.094;2023-03-01T05:07:45;7.67;;;5.63;;
11988;SDS011;6054;50.966;7.094;2023-03-01T05:10:12;6.70;;;5.00;;
11988;SDS011;6054;50.966;7.094;2023-03-01T05:12:39;8.27;;;5.10;;
11988;SDS011;6054;50.966;7.094;2023-03-01T05:15:08;8.53;;;5.53;;
11988;SDS011;6054;50.966;7.094;2023-03-01T05:17:35;5.73;;;5.10;;
11988;SDS011;6054;50.966;7.094;2023-03-01T05:20:02;7.37;;;5.20;;
11988;SDS011;6054;50.966;7.094;2023-03-01T05:22:32;8.33;;;5.80;;
11988;SDS011;6054;50.966;7.094;2023-03-01T05:24:59;7.43;;;5.27;;
11988;SDS011;6054;50.966;7.094;2023-03-01T05:27:26;6.73;;;4.83;;
11988;SDS011;6054;50.966;7.094;2023-03-01T05:29:54;8.37;;;6.03;;
11988;SDS011;6054;50.966;7.094;2023-03-01T05:32:22;9.63;;;5.97;;
11988;SDS011;6054;50.966;7.094;2023-03-01T05:34:49;7.27;;;5.60;;
11988;SDS011;6054;50.966;7.094;2023-03-01T05:37:17;8.83;;;6.07;;
11988;SDS011;6054;50.966;7.094;2023-03-01T05:39:44;10.10;;;5.67;;
11988;SDS011;6054;50.966;7.094;2023-03-01T05:42:11;9.87;;;6.20;;
11988;SDS011;6054;50.966;7.094;2023-03-01T05:44:38;8.07;;;5.60;;
11988;SDS011;6054;50.966;7.094;2023-03-01T05:47:05;6.70;;;5.67;;
11988;SDS011;6054;50.966;7.094;2023-03-01T05:49:33;10.03;;;5.73;;
11988;SDS011;6054;50.966;7.094;2023-03-01T05:52:00;7.53;;;5.60;;
11988;SDS011;6054;50.966;7.094;2023-03-01T05:54:26;10.43;;;5.77;;
11988;SDS011;6054;50.966;7.094;2023-03-01T05:56:53;6.27;;;5.20;;
11988;SDS011;6054;50.966;7.094;2023-03-01T05:59:21;8.93;;;5.40;;
11988;SDS011;6054;50.966;7.094;2023-03-01T06:01:48;9.87;;;6.13;;
11988;SDS011;6054;50.966;7.094;2023-03-01T06:04:15;9.27;;;6.23;;
11988;SDS011;6054;50.966;7.094;2023-03-01T06:06:43;11.03;;;5.77;;
11988;SDS011;6054;50.966;7.094;2023-03-01T06:09:09;7.33;;;5.50;;
11988;SDS011;6054;50.966;7.094;2023-03-01T06:11:36;5.90;;;5.30;;
11988;SDS011;6054;50.966;7.094;2023-03-01T06:14:03;9.93;;;6.00;;
11988;SDS011;6054;50.966;7.094;2023-03-01T06:16:32;9.33;;;6.40;;
11988;SDS011;6054;50.966;7.094;2023-03-01T06:18:59;14.03;;;6.83;;
11988;SDS011;6054;50.966;7.094;2023-03-01T06:21:26;9.67;;;6.20;;
11988;SDS011;6054;50.966;7.094;2023-03-01T06:23:54;12.80;;;6.20;;
11988;SDS011;6054;50.966;7.094;2023-03-01T06:26:21;9.60;;;6.30;;
11988;SDS011;6054;50.966;7.094;2023-03-01T06:28:48;11.40;;;6.60;;
11988;SDS011;6054;50.966;7.094;2023-03-01T06:31:14;11.37;;;6.77;;
11988;SDS011;6054;50.966;7.094;2023-03-01T06:33:41;10.97;;;5.97;;
11988;SDS011;6054;50.966;7.094;2023-03-01T06:36:09;7.07;;;5.67;;
11988;SDS011;6054;50.966;7.094;2023-03-01T06:38:36;8.30;;;5.90;;
11988;SDS011;6054;50.966;7.094;2023-03-01T06:41:04;8.83;;;6.13;;
11988;SDS011;6054;50.966;7.094;2023-03-01T06:43:31;8.33;;;6.03;;
11988;SDS011;6054;50.966;7.094;2023-03-01T06:45:58;8.23;;;6.37;;
11988;SDS011;6054;50.966;7.094;2023-03-01T06:48:25;9.00;;;6.33;;
11988;SDS011;6054;50.966;7.094;2023-03-01T06:50:52;10.90;;;6.73;;
11988;SDS011;6054;50.966;7.094;2023-03-01T06:53:19;9.43;;;5.97;;
11988;SDS011;6054;50.966;7.094;2023-03-01T06:55:46;10.03;;;6.53;;
11988;SDS011;6054;50.966;7.094;2023-03-01T06:58:14;10.47;;;6.57;;
11988;SDS011;6054;50.966;7.094;2023-03-01T07:00:40;11.10;;;6.80;;
11988;SDS011;6054;50.966;7.094;2023-03-01T07:03:08;9.70;;;7.17;;
11988;SDS011;6054;50.966;7.094;2023-03-01T07:05:35;10.00;;;7.03;;
11988;SDS011;6054;50.966;7.094;2023-03-01T07:08:02;8.70;;;6.57;;
11988;SDS011;6054;50.966;7.094;2023-03-01T07:10:28;13.53;;;7.80;;
11988;SDS011;6054;50.966;7.094;2023-03-01T07:12:55;10.23;;;7.73;;
11988;SDS011;6054;50.966;7.094;2023-03-01T07:15:24;9.57;;;6.93;;
11988;SDS011;6054;50.966;7.094;2023-03-01T07:17:52;10.27;;;7.23;;
11988;SDS011;6054;50.966;7.094;2023-03-01T07:20:19;12.37;;;7.33;;
11988;SDS011;6054;50.966;7.094;2023-03-01T07:22:49;9.30;;;7.37;;
11988;SDS011;6054;50.966;7.094;2023-03-01T07:25:16;8.87;;;7.13;;
11988;SDS011;6054;50.966;7.094;2023-03-01T07:27:42;11.90;;;7.23;;
11988;SDS011;6054;50.966;7.094;2023-03-01T07:30:10;9.63;;;7.37;;
11988;SDS011;6054;50.966;7.094;2023-03-01T07:32:38;10.33;;;7.40;;
11988;SDS011;6054;50.966;7.094;2023-03-01T07:35:05;10.50;;;7.60;;
11988;SDS011;6054;50.966;7.094;2023-03-01T07:37:32;9.93;;;7.67;;
11988;SDS011;6054;50.966;7.094;2023-03-01T07:39:59;10.37;;;8.30;;
11988;SDS011;6054;50.966;7.094;2023-03-01T07:42:26;10.73;;;7.57;;
11988;SDS011;6054;50.966;7.094;2023-03-01T07:44:52;11.47;;;7.63;;
11988;SDS011;6054;50.966;7.094;2023-03-01T07:47:19;10.27;;;7.57;;
11988;SDS011;6054;50.966;7.094;2023-03-01T07:49:47;11.67;;;8.30;;
11988;SDS011;6054;50.966;7.094;2023-03-01T07:52:14;12.47;;;7.77;;
11988;SDS011;6054;50.966;7.094;2023-03-01T07:54:42;13.17;;;8.40;;
11988;SDS011;6054;50.966;7.094;2023-03-01T07:57:09;13.27;;;8.53;;
11988;SDS011;6054;50.966;7.094;2023-03-01T07:59:36;10.50;;;7.73;;
11988;SDS011;6054;50.966;7.094;2023-03-01T08:02:03;13.80;;;8.20;;
11988;SDS011;6054;50.966;7.094;2023-03-01T08:04:29;10.83;;;7.63;;
11988;SDS011;6054;50.966;7.094;2023-03-01T08:06:57;10.20;;;8.13;;
11988;SDS011;6054;50.966;7.094;2023-03-01T08:09:24;10.57;;;8.27;;
11988;SDS011;6054;50.966;7.094;2023-03-01T08:11:51;10.70;;;7.60;;
11988;SDS011;6054;50.966;7.094;2023-03-01T08:14:19;16.77;;;7.90;;
11988;SDS011;6054;50.966;7.094;2023-03-01T08:16:48;11.03;;;7.77;;
11988;SDS011;6054;50.966;7.094;2023-03-01T08:19:15;10.43;;;7.93;;
11988;SDS011;6054;50.966;7.094;2023-03-01T08:21:42;12.70;;;8.50;;
11988;SDS011;6054;50.966;7.094;2023-03-01T08:24:10;11.80;;;7.93;;
11988;SDS011;6054;50.966;7.094;2023-03-01T08:26:37;11.43;;;7.73;;
11988;SDS011;6054;50.966;7.094;2023-03-01T08:29:03;12.47;;;8.00;;
11988;SDS011;6054;50.966;7.094;2023-03-01T08:31:31;9.10;;;7.37;;
11988;SDS011;6054;50.966;7.094;2023-03-01T08:34:00;10.67;;;8.03;;
11988;SDS011;6054;50.966;7.094;2023-03-01T08:36:29;11.33;;;8.03;;
11988;SDS011;6054;50.966;7.094;2023-03-01T08:38:57;10.00;;;7.90;;
11988;SDS011;6054;50.966;7.094;2023-03-01T08:41:25;10.47;;;8.30;;
11988;SDS011;6054;50.966;7.094;2023-03-01T08:43:53;10.50;;;7.07;;
11988;SDS011;6054;50.966;7.094;2023-03-01T08:46:23;11.00;;;8.03;;
11988;SDS011;6054;50.966;7.094;2023-03-01T08:48:50;9.43;;;7.03;;
11988;SDS011;6054;50.966;7.094;2023-03-01T08:51:17;9.57;;;7.10;;
11988;SDS011;6054;50.966;7.094;2023-03-01T08:53:46;10.40;;;7.63;;
11988;SDS011;6054;50.966;7.094;2023-03-01T08:56:13;11.43;;;7.40;;
11988;SDS011;6054;50.966;7.094;2023-03-01T08:58:44;9.60;;;7.70;;
11988;SDS011;6054;50.966;7.094;2023-03-01T09:01:12;10.53;;;7.50;;
11988;SDS011;6054;50.966;7.094;2023-03-01T09:03:40;10.00;;;7.27;;
11988;SDS011;6054;50.966;7.094;2023-03-01T09:06:07;11.03;;;6.67;;
11988;SDS011;6054;50.966;7.094;2023-03-01T09:08:34;9.63;;;6.83;;
11988;SDS011;6054;50.966;7.094;2023-03-01T09:11:02;9.30;;;7.30;;
11988;SDS011;6054;50.966;7.094;2023-03-01T09:13:29;8.70;;;7.23;;
11988;SDS011;6054;50.966;7.094;2023-03-01T09:15:58;9.80;;;6.60;;
11988;SDS011;6054;50.966;7.094;2023-03-01T09:18:26;9.00;;;6.30;;
11988;SDS011;6054;50.966;7.094;2023-03-01T09:21:00;10.33;;;6.83;;
11988;SDS011;6054;50.966;7.094;2023-03-01T09:23:27;11.48;;;7.00;;
11988;SDS011;6054;50.966;7.094;2023-03-01T09:25:53;8.63;;;6.67;;
11988;SDS011;6054;50.966;7.094;2023-03-01T09:28:20;10.43;;;6.87;;
11988;SDS011;6054;50.966;7.094;2023-03-01T09:30:48;9.77;;;7.13;;
11988;SDS011;6054;50.966;7.094;2023-03-01T09:33:16;9.18;;;6.22;;
11988;SDS011;6054;50.966;7.094;2023-03-01T09:35:43;7.87;;;6.30;;
11988;SDS011;6054;50.966;7.094;2023-03-01T09:38:11;8.83;;;6.70;;
11988;SDS011;6054;50.966;7.094;2023-03-01T09:40:41;9.97;;;7.40;;
11988;SDS011;6054;50.966;7.094;2023-03-01T09:43:13;9.93;;;6.50;;
11988;SDS011;6054;50.966;7.094;2023-03-01T09:45:45;8.60;;;6.93;;
11988;SDS011;6054;50.966;7.094;2023-03-01T09:48:17;10.65;;;7.10;;
11988;SDS011;6054;50.966;7.094;2023-03-01T09:50:47;10.33;;;6.90;;
11988;SDS011;6054;50.966;7.094;2023-03-01T09:53:15;10.20;;;7.17;;
11988;SDS011;6054;50.966;7.094;2023-03-01T09:55:44;11.70;;;8.03;;
11988;SDS011;6054;50.966;7.094;2023-03-01T09:58:22;9.67;;;6.90;;
11988;SDS011;6054;50.966;7.094;2023-03-01T10:00:58;10.25;;;7.18;;
11988;SDS011;6054;50.966;7.094;2023-03-01T10:03:31;9.57;;;7.30;;
11988;SDS011;6054;50.966;7.094;2023-03-01T10:06:06;9.80;;;7.57;;
11988;SDS011;6054;50.966;7.094;2023-03-01T10:08:40;8.40;;;6.83;;
11988;SDS011;6054;50.966;7.094;2023-03-01T10:11:17;10.23;;;7.18;;
11988;SDS011;6054;50.966;7.094;2023-03-01T10:13:48;9.10;;;6.80;;
11988;SDS011;6054;50.966;7.094;2023-03-01T10:16:21;10.15;;;6.63;;
11988;SDS011;6054;50.966;7.094;2023-03-01T10:18:55;9.00;;;6.80;;
11988;SDS011;6054;50.966;7.094;2023-03-01T10:21:25;10.93;;;7.78;;
11988;SDS011;6054;50.966;7.094;2023-03-01T10:23:54;8.52;;;6.72;;
11988;SDS011;6054;50.966;7.094;2023-03-01T10:26:32;8.00;;;6.55;;
11988;SDS011;6054;50.966;7.094;2023-03-01T10:29:06;8.93;;;6.90;;
11988;SDS011;6054;50.966;7.094;2023-03-01T10:31:39;8.88;;;6.90;;
11988;SDS011;6054;50.966;7.094;2023-03-01T10:34:15;10.65;;;6.80;;
11988;SDS011;6054;50.966;7.094;2023-03-01T10:36:43;8.65;;;6.47;;
11988;SDS011;6054;50.966;7.094;2023-03-01T10:39:16;10.32;;;6.90;;
11988;SDS011;6054;50.966;7.094;2023-03-01T10:41:57;10.35;;;7.18;;
11988;SDS011;6054;50.966;7.094;2023-03-01T10:44:39;8.68;;;6.95;;
11988;SDS011;6054;50.966;7.094;2023-03-01T10:47:18;9.80;;;6.45;;
11988;SDS011;6054;50.966;7.094;2023-03-01T10:49:52;8.18;;;6.60;;
11988;SDS011;6054;50.966;7.094;2023-03-01T10:52:25;7.70;;;6.90;;
11988;SDS011;6054;50.966;7.094;2023-03-01T10:54:57;7.57;;;6.70;;
11988;SDS011;6054;50.966;7.094;2023-03-01T10:57:31;7.82;;;7.03;;
11988;SDS011;6054;50.966;7.094;2023-03-01T11:00:10;10.38;;;7.55;;
11988;SDS011;6054;50.966;7.094;2023-03-01T11:02:51;12.32;;;7.20;;
11988;SDS011;6054;50.966;7.094;2023-03-01T11:05:30;9.93;;;6.93;;
11988;SDS011;6054;50.966;7.094;2023-03-01T11:07:59;8.40;;;7.05;;
11988;SDS011;6054;50.966;7.094;2023-03-01T11:10:28;11.60;;;6.95;;
11988;SDS011;6054;50.966;7.094;2023-03-01T11:13:05;11.18;;;7.20;;
11988;SDS011;6054;50.966;7.094;2023-03-01T11:15:33;8.57;;;6.00;;
11988;SDS011;6054;50.966;7.094;2023-03-01T11:18:00;8.32;;;6.72;;
11988;SDS011;6054;50.966;7.094;2023-03-01T11:20:31;7.55;;;6.78;;
11988;SDS011;6054;50.966;7.094;2023-03-01T11:23:01;8.98;;;6.90;;
11988;SDS011;6054;50.966;7.094;2023-03-01T11:25:31;11.05;;;6.57;;
11988;SDS011;6054;50.966;7.094;2023-03-01T11:28:02;10.05;;;6.70;;
11988;SDS011;6054;50.966;7.094;2023-03-01T11:30:31;7.25;;;6.43;;
11988;SDS011;6054;50.966;7.094;2023-03-01T11:33:03;9.25;;;6.60;;
11988;SDS011;6054;50.966;7.094;2023-03-01T11:35:42;8.88;;;7.15;;
11988;SDS011;6054;50.966;7.094;2023-03-01T11:38:16;7.30;;;5.43;;
11988;SDS011;6054;50.966;7.094;2023-03-01T11:40:47;6.80;;;6.10;;
11988;SDS011;6054;50.966;7.094;2023-03-01T11:43:20;7.72;;;6.28;;
11988;SDS011;6054;50.966;7.094;2023-03-01T11:46:06;9.35;;;6.45;;
11988;SDS011;6054;50.966;7.094;2023-03-01T11:49:01;8.50;;;6.65;;
11988;SDS011;6054;50.966;7.094;2023-03-01T11:51:44;8.80;;;5.78;;
11988;SDS011;6054;50.966;7.094;2023-03-01T11:54:21;7.38;;;6.13;;
11988;SDS011;6054;50.966;7.094;2023-03-01T11:56:54;8.77;;;5.72;;
11988;SDS011;6054;50.966;7.094;2023-03-01T11:59:32;8.40;;;5.55;;
11988;SDS011;6054;50.966;7.094;2023-03-01T12:02:14;8.38;;;6.35;;
11988;SDS011;6054;50.966;7.094;2023-03-01T12:05:06;7.45;;;5.93;;
11988;SDS011;6054;50.966;7.094;2023-03-01T12:07:49;8.32;;;6.15;;
11988;SDS011;6054;50.966;7.094;2023-03-01T12:10:23;8.88;;;6.22;;
11988;SDS011;6054;50.966;7.094;2023-03-01T12:12:57;8.23;;;5.78;;
11988;SDS011;6054;50.966;7.094;2023-03-01T12:15:42;5.85;;;5.20;;
11988;SDS011;6054;50.966;7.094;2023-03-01T12:21:21;7.50;;;5.75;;
11988;SDS011;6054;50.966;7.094;2023-03-01T12:24:06;6.20;;;5.28;;
11988;SDS011;6054;50.966;7.094;2023-03-01T12:26:58;9.18;;;5.60;;
11988;SDS011;6054;50.966;7.094;2023-03-01T12:29:38;7.55;;;5.30;;
11988;SDS011;6054;50.966;7.094;2023-03-01T12:32:19;6.18;;;5.38;;
11988;SDS011;6054;50.966;7.094;2023-03-01T12:35:04;7.55;;;5.38;;
11988;SDS011;6054;50.966;7.094;2023-03-01T12:37:51;7.15;;;5.53;;
11988;SDS011;6054;50.966;7.094;2023-03-01T12:40:27;6.38;;;4.65;;
11988;SDS011;6054;50.966;7.094;2023-03-01T12:43:07;6.35;;;5.25;;
11988;SDS011;6054;50.966;7.094;2023-03-01T12:45:47;9.25;;;5.40;;
11988;SDS011;6054;50.966;7.094;2023-03-01T12:48:28;8.35;;;5.10;;
11988;SDS011;6054;50.966;7.094;2023-03-01T12:51:07;6.20;;;5.28;;
11988;SDS011;6054;50.966;7.094;2023-03-01T12:53:40;6.10;;;5.38;;
11988;SDS011;6054;50.966;7.094;2023-03-01T12:56:11;6.35;;;5.38;;
11988;SDS011;6054;50.966;7.094;2023-03-01T12:58:41;7.30;;;5.43;;
11988;SDS011;6054;50.966;7.094;2023-03-01T13:01:22;5.55;;;4.45;;
11988;SDS011;6054;50.966;7.094;2023-03-01T13:04:00;7.28;;;5.65;;
11988;SDS011;6054;50.966;7.094;2023-03-01T13:06:39;6.63;;;5.20;;
11988;SDS011;6054;50.966;7.094;2023-03-01T13:09:13;7.85;;;5.63;;
11988;SDS011;6054;50.966;7.094;2023-03-01T13:11:46;7.20;;;5.50;;
11988;SDS011;6054;50.966;7.094;2023-03-01T13:17:03;6.88;;;5.22;;
11988;SDS011;6054;50.966;7.094;2023-03-01T13:19:29;5.78;;;5.13;;
11988;SDS011;6054;50.966;7.094;2023-03-01T13:21:57;7.00;;;5.40;;
11988;SDS011;6054;50.966;7.094;2023-03-01T13:24:25;6.90;;;6.10;;
11988;SDS011;6054;50.966;7.094;2023-03-01T13:27:11;6.32;;;4.95;;
11988;SDS011;6054;50.966;7.094;2023-03-01T13:29:50;8.85;;;5.70;;
11988;SDS011;6054;50.966;7.094;2023-03-01T13:32:19;10.48;;;6.13;;
11988;SDS011;6054;50.966;7.094;2023-03-01T13:34:50;7.65;;;5.63;;
11988;SDS011;6054;50.966;7.094;2023-03-01T13:37:21;6.80;;;6.13;;
11988;SDS011;6054;50.966;7.094;2023-03-01T13:39:54;6.80;;;5.63;;
11988;SDS011;6054;50.966;7.094;2023-03-01T13:42:34;9.27;;;6.03;;
11988;SDS011;6054;50.966;7.094;2023-03-01T13:45:04;9.00;;;5.68;;
11988;SDS011;6054;50.966;7.094;2023-03-01T13:47:41;6.80;;;5.95;;
11988;SDS011;6054;50.966;7.094;2023-03-01T13:50:15;7.30;;;5.43;;
11988;SDS011;6054;50.966;7.094;2023-03-01T13:52:45;6.75;;;5.20;;
11988;SDS011;6054;50.966;7.094;2023-03-01T13:55:16;6.70;;;6.00;;
11988;SDS011;6054;50.966;7.094;2023-03-01T13:57:47;7.65;;;5.43;;
11988;SDS011;6054;50.966;7.094;2023-03-01T14:00:26;8.20;;;5.57;;
11988;SDS011;6054;50.966;7.094;2023-03-01T14:03:01;7.10;;;5.10;;
11988;SDS011;6054;50.966;7.094;2023-03-01T14:05:29;6.57;;;5.50;;
11988;SDS011;6054;50.966;7.094;2023-03-01T14:07:56;6.53;;;5.07;;
11988;SDS011;6054;50.966;7.094;2023-03-01T14:10:23;8.38;;;5.28;;
11988;SDS011;6054;50.966;7.094;2023-03-01T14:13:02;9.18;;;4.90;;
11988;SDS011;6054;50.966;7.094;2023-03-01T14:15:41;6.22;;;5.15;;
11988;SDS011;6054;50.966;7.094;2023-03-01T14:18:16;5.63;;;5.03;;
11988;SDS011;6054;50.966;7.094;2023-03-01T14:20:48;7.38;;;4.65;;
11988;SDS011;6054;50.966;7.094;2023-03-01T14:23:17;5.30;;;4.80;;
11988;SDS011;6054;50.966;7.094;2023-03-01T14:25:47;6.10;;;4.68;;
11988;SDS011;6054;50.966;7.094;2023-03-01T14:28:17;5.90;;;5.10;;
11988;SDS011;6054;50.966;7.094;2023-03-01T14:30:47;7.95;;;4.93;;
11988;SDS011;6054;50.966;7.094;2023-03-01T14:33:19;7.35;;;5.13;;
11988;SDS011;6054;50.966;7.094;2023-03-01T14:35:52;8.00;;;5.68;;
11988;SDS011;6054;50.966;7.094;2023-03-01T14:38:21;6.85;;;5.70;;
11988;SDS011;6054;50.966;7.094;2023-03-01T14:40:50;8.95;;;5.88;;
11988;SDS011;6054;50.966;7.094;2023-03-01T14:43:21;6.90;;;5.55;;
11988;SDS011;6054;50.966;7.094;2023-03-01T14:45:50;8.82;;;5.40;;
11988;SDS011;6054;50.966;7.094;2023-03-01T14:48:17;7.10;;;5.72;;
11988;SDS011;6054;50.966;7.094;2023-03-01T14:50:45;8.32;;;5.82;;
11988;SDS011;6054;50.966;7.094;2023-03-01T14:53:15;7.07;;;5.90;;
11988;SDS011;6054;50.966;7.094;2023-03-01T14:55:45;9.73;;;5.97;;
11988;SDS011;6054;50.966;7.094;2023-03-01T14:58:14;7.90;;;5.90;;
11988;SDS011;6054;50.966;7.094;2023-03-01T15:00:47;8.13;;;5.93;;
11988;SDS011;6054;50.966;7.094;2023-03-01T15:03:17;7.55;;;5.90;;
11988;SDS011;6054;50.966;7.094;2023-03-01T15:05:51;10.10;;;6.45;;
11988;SDS011;6054;50.966;7.094;2023-03-01T15:08:19;8.43;;;5.88;;
11988;SDS011;6054;50.966;7.094;2023-03-01T15:10:56;8.70;;;6.43;;
11988;SDS011;6054;50.966;7.094;2023-03-01T15:13:25;8.27;;;5.80;;
11988;SDS011;6054;50.966;7.094;2023-03-01T15:16:01;8.85;;;5.95;;
11988;SDS011;6054;50.966;7.094;2023-03-01T15:18:31;7.60;;;5.70;;
11988;SDS011;6054;50.966;7.094;2023-03-01T15:21:05;8.38;;;5.60;;
11988;SDS011;6054;50.966;7.094;2023-03-01T15:23:33;7.65;;;6.10;;